sensor_id;sensor_type;location;lat;lon;timestamp;P1;durP1;ratioP1;P2;durP2;ratioP2
19927;SDS011;10126;50.876;4.470;2023-01-26T00:01:39;0.90;;;0.90;;
19927;SDS011;10126;50.876;4.470;2023-01-26T00:03:40;0.80;;;0.80;;
19927;SDS011;10126;50.876;4.470;2023-01-26T00:05:41;0.90;;;0.90;;
19927;SDS011;10126;50.876;4.470;2023-01-26T00:07:42;1.00;;;1.00;;
19927;SDS011;10126;50.876;4.470;2023-01-26T00:09:44;0.90;;;0.90;;
19927;SDS011;10126;50.876;4.470;2023-01-26T00:11:45;1.00;;;1.00;;
19927;SDS011;10126;50.876;4.470;2023-01-26T00:13:48;0.90;;;0.90;;
19927;SDS011;10126;50.876;4.470;2023-01-26T00:15:49;0.93;;;0.93;;
19927;SDS011;10126;50.876;4.470;2023-01-26T00:17:50;1.07;;;1.07;;
19927;SDS011;10126;50.876;4.470;2023-01-26T00:19:54;0.93;;;0.93;;
19927;SDS011;10126;50.876;4.470;2023-01-26T00:21:56;0.90;;;0.90;;
19927;SDS011;10126;50.876;4.470;2023-01-26T00:23:59;1.00;;;1.00;;
19927;SDS011;10126;50.876;4.470;2023-01-26T00:26:00;1.13;;;1.13;;
19927;SDS011;10126;50.876;4.470;2023-01-26T00:28:01;0.97;;;0.97;;
19927;SDS011;10126;50.876;4.470;2023-01-26T00:30:02;1.10;;;1.10;;
19927;SDS011;10126;50.876;4.470;2023-01-26T00:32:03;1.00;;;1.00;;
19927;SDS011;10126;50.876;4.470;2023-01-26T00:34:04;0.97;;;0.97;;
19927;SDS011;10126;50.876;4.470;2023-01-26T00:36:05;0.93;;;0.93;;
19927;SDS011;10126;50.876;4.470;2023-01-26T00:38:06;0.90;;;0.90;;
19927;SDS011;10126;50.876;4.470;2023-01-26T00:40:08;0.90;;;0.90;;
19927;SDS011;10126;50.876;4.470;2023-01-26T00:42:10;1.10;;;1.10;;
19927;SDS011;10126;50.876;4.470;2023-01-26T00:44:12;0.97;;;0.97;;
19927;SDS011;10126;50.876;4.470;2023-01-26T00:46:13;0.80;;;0.80;;
19927;SDS011;10126;50.876;4.470;2023-01-26T00:48:14;1.10;;;1.10;;
19927;SDS011;10126;50.876;4.470;2023-01-26T00:50:15;0.97;;;0.97;;
19927;SDS011;10126;50.876;4.470;2023-01-26T00:52:16;0.90;;;0.90;;
19927;SDS011;10126;50.876;4.470;2023-01-26T00:54:16;0.90;;;0.90;;
19927;SDS011;10126;50.876;4.470;2023-01-26T00:56:17;0.80;;;0.80;;
19927;SDS011;10126;50.876;4.470;2023-01-26T00:58:17;0.80;;;0.80;;
19927;SDS011;10126;50.876;4.470;2023-01-26T01:00:18;0.83;;;0.83;;
19927;SDS011;10126;50.876;4.470;2023-01-26T01:02:19;1.00;;;1.00;;
19927;SDS011;10126;50.876;4.470;2023-01-26T01:04:20;1.00;;;1.00;;
19927;SDS011;10126;50.876;4.470;2023-01-26T01:06:20;1.10;;;1.10;;
19927;SDS011;10126;50.876;4.470;2023-01-26T01:08:21;1.10;;;1.10;;
19927;SDS011;10126;50.876;4.470;2023-01-26T01:10:22;0.90;;;0.90;;
19927;SDS011;10126;50.876;4.470;2023-01-26T01:12:24;0.90;;;0.90;;
19927;SDS011;10126;50.876;4.470;2023-01-26T01:14:24;0.90;;;0.90;;
19927;SDS011;10126;50.876;4.470;2023-01-26T01:16:25;0.70;;;0.70;;
19927;SDS011;10126;50.876;4.470;2023-01-26T01:18:27;0.90;;;0.90;;
19927;SDS011;10126;50.876;4.470;2023-01-26T01:20:28;1.10;;;1.10;;
19927;SDS011;10126;50.876;4.470;2023-01-26T01:22:28;1.00;;;1.00;;
19927;SDS011;10126;50.876;4.470;2023-01-26T01:24:29;0.90;;;0.90;;
19927;SDS011;10126;50.876;4.470;2023-01-26T01:26:31;1.07;;;1.07;;
19927;SDS011;10126;50.876;4.470;2023-01-26T01:28:32;1.10;;;1.10;;
19927;SDS011;10126;50.876;4.470;2023-01-26T01:30:36;0.90;;;0.90;;
19927;SDS011;10126;50.876;4.470;2023-01-26T01:32:37;0.90;;;0.90;;
19927;SDS011;10126;50.876;4.470;2023-01-26T01:34:41;1.07;;;1.07;;
19927;SDS011;10126;50.876;4.470;2023-01-26T01:36:41;1.10;;;1.10;;
19927;SDS011;10126;50.876;4.470;2023-01-26T01:38:42;1.17;;;1.10;;
19927;SDS011;10126;50.876;4.470;2023-01-26T01:40:44;1.00;;;1.00;;
19927;SDS011;10126;50.876;4.470;2023-01-26T01:42:45;1.00;;;1.00;;
19927;SDS011;10126;50.876;4.470;2023-01-26T01:45:22;1.20;;;1.20;;
19927;SDS011;10126;50.876;4.470;2023-01-26T01:47:25;0.90;;;0.90;;
19927;SDS011;10126;50.876;4.470;2023-01-26T01:49:33;1.13;;;1.13;;
19927;SDS011;10126;50.876;4.470;2023-01-26T01:51:47;0.90;;;0.90;;
19927;SDS011;10126;50.876;4.470;2023-01-26T01:54:10;1.17;;;1.17;;
19927;SDS011;10126;50.876;4.470;2023-01-26T01:56:17;1.07;;;1.07;;
19927;SDS011;10126;50.876;4.470;2023-01-26T01:58:22;0.90;;;0.90;;
19927;SDS011;10126;50.876;4.470;2023-01-26T02:00:23;1.00;;;1.00;;
19927;SDS011;10126;50.876;4.470;2023-01-26T02:02:25;0.97;;;0.97;;
19927;SDS011;10126;50.876;4.470;2023-01-26T02:04:26;1.00;;;1.00;;
19927;SDS011;10126;50.876;4.470;2023-01-26T02:06:32;1.00;;;1.00;;
19927;SDS011;10126;50.876;4.470;2023-01-26T02:08:39;0.90;;;0.90;;
19927;SDS011;10126;50.876;4.470;2023-01-26T02:10:41;0.90;;;0.90;;
19927;SDS011;10126;50.876;4.470;2023-01-26T02:12:46;0.97;;;0.97;;
19927;SDS011;10126;50.876;4.470;2023-01-26T02:14:51;1.00;;;1.00;;
19927;SDS011;10126;50.876;4.470;2023-01-26T02:16:52;0.90;;;0.90;;
19927;SDS011;10126;50.876;4.470;2023-01-26T02:18:53;0.90;;;0.90;;
19927;SDS011;10126;50.876;4.470;2023-01-26T02:21:01;0.80;;;0.80;;
19927;SDS011;10126;50.876;4.470;2023-01-26T02:27:30;0.90;;;0.90;;
19927;SDS011;10126;50.876;4.470;2023-01-26T02:29:31;0.97;;;0.97;;
19927;SDS011;10126;50.876;4.470;2023-01-26T02:31:32;0.90;;;0.90;;
19927;SDS011;10126;50.876;4.470;2023-01-26T02:33:32;1.00;;;1.00;;
19927;SDS011;10126;50.876;4.470;2023-01-26T02:35:34;1.00;;;1.00;;
19927;SDS011;10126;50.876;4.470;2023-01-26T02:37:34;1.00;;;1.00;;
19927;SDS011;10126;50.876;4.470;2023-01-26T02:39:47;0.90;;;0.90;;
19927;SDS011;10126;50.876;4.470;2023-01-26T02:41:49;1.00;;;1.00;;
19927;SDS011;10126;50.876;4.470;2023-01-26T02:44:10;0.90;;;0.90;;
19927;SDS011;10126;50.876;4.470;2023-01-26T02:46:12;0.80;;;0.80;;
19927;SDS011;10126;50.876;4.470;2023-01-26T02:48:13;0.77;;;0.77;;
19927;SDS011;10126;50.876;4.470;2023-01-26T02:50:33;0.90;;;0.90;;
19927;SDS011;10126;50.876;4.470;2023-01-26T02:52:35;1.00;;;1.00;;
19927;SDS011;10126;50.876;4.470;2023-01-26T02:54:36;0.70;;;0.70;;
19927;SDS011;10126;50.876;4.470;2023-01-26T02:56:55;0.80;;;0.80;;
19927;SDS011;10126;50.876;4.470;2023-01-26T02:58:55;0.77;;;0.77;;
19927;SDS011;10126;50.876;4.470;2023-01-26T03:00:56;0.70;;;0.70;;
19927;SDS011;10126;50.876;4.470;2023-01-26T03:02:58;0.70;;;0.70;;
19927;SDS011;10126;50.876;4.470;2023-01-26T03:05:00;0.60;;;0.60;;
19927;SDS011;10126;50.876;4.470;2023-01-26T03:07:01;0.83;;;0.83;;
19927;SDS011;10126;50.876;4.470;2023-01-26T03:09:01;0.70;;;0.70;;
19927;SDS011;10126;50.876;4.470;2023-01-26T03:11:03;0.60;;;0.60;;
19927;SDS011;10126;50.876;4.470;2023-01-26T03:13:04;0.80;;;0.80;;
19927;SDS011;10126;50.876;4.470;2023-01-26T03:15:05;0.80;;;0.80;;
19927;SDS011;10126;50.876;4.470;2023-01-26T03:17:25;0.60;;;0.60;;
19927;SDS011;10126;50.876;4.470;2023-01-26T03:19:26;0.70;;;0.70;;
19927;SDS011;10126;50.876;4.470;2023-01-26T03:21:45;0.70;;;0.70;;
19927;SDS011;10126;50.876;4.470;2023-01-26T03:24:04;0.70;;;0.70;;
19927;SDS011;10126;50.876;4.470;2023-01-26T03:26:31;0.60;;;0.60;;
19927;SDS011;10126;50.876;4.470;2023-01-26T03:31:45;0.80;;;0.80;;
19927;SDS011;10126;50.876;4.470;2023-01-26T03:33:55;0.80;;;0.80;;
19927;SDS011;10126;50.876;4.470;2023-01-26T03:35:59;0.97;;;0.97;;
19927;SDS011;10126;50.876;4.470;2023-01-26T03:38:03;0.70;;;0.70;;
19927;SDS011;10126;50.876;4.470;2023-01-26T03:40:04;0.70;;;0.70;;
19927;SDS011;10126;50.876;4.470;2023-01-26T03:42:24;0.70;;;0.70;;
19927;SDS011;10126;50.876;4.470;2023-01-26T03:44:44;0.77;;;0.77;;
19927;SDS011;10126;50.876;4.470;2023-01-26T03:47:03;0.90;;;0.90;;
19927;SDS011;10126;50.876;4.470;2023-01-26T03:49:23;0.97;;;0.97;;
19927;SDS011;10126;50.876;4.470;2023-01-26T03:51:42;0.70;;;0.70;;
19927;SDS011;10126;50.876;4.470;2023-01-26T03:54:01;0.73;;;0.73;;
19927;SDS011;10126;50.876;4.470;2023-01-26T03:56:20;0.80;;;0.80;;
19927;SDS011;10126;50.876;4.470;2023-01-26T03:58:21;0.80;;;0.80;;
19927;SDS011;10126;50.876;4.470;2023-01-26T04:00:22;0.80;;;0.80;;
19927;SDS011;10126;50.876;4.470;2023-01-26T04:02:23;0.80;;;0.80;;
19927;SDS011;10126;50.876;4.470;2023-01-26T04:04:42;0.73;;;0.73;;
19927;SDS011;10126;50.876;4.470;2023-01-26T04:07:01;1.00;;;1.00;;
19927;SDS011;10126;50.876;4.470;2023-01-26T04:09:20;0.87;;;0.87;;
19927;SDS011;10126;50.876;4.470;2023-01-26T04:11:21;0.83;;;0.83;;
19927;SDS011;10126;50.876;4.470;2023-01-26T04:13:22;0.90;;;0.90;;
19927;SDS011;10126;50.876;4.470;2023-01-26T04:15:42;0.83;;;0.83;;
19927;SDS011;10126;50.876;4.470;2023-01-26T04:18:07;0.80;;;0.80;;
19927;SDS011;10126;50.876;4.470;2023-01-26T04:20:26;0.70;;;0.70;;
19927;SDS011;10126;50.876;4.470;2023-01-26T04:22:48;0.80;;;0.80;;
19927;SDS011;10126;50.876;4.470;2023-01-26T04:24:49;0.73;;;0.70;;
19927;SDS011;10126;50.876;4.470;2023-01-26T04:26:50;0.70;;;0.70;;
19927;SDS011;10126;50.876;4.470;2023-01-26T04:28:50;0.90;;;0.90;;
19927;SDS011;10126;50.876;4.470;2023-01-26T04:30:51;0.80;;;0.80;;
19927;SDS011;10126;50.876;4.470;2023-01-26T04:32:52;0.90;;;0.90;;
19927;SDS011;10126;50.876;4.470;2023-01-26T04:34:52;0.60;;;0.60;;
19927;SDS011;10126;50.876;4.470;2023-01-26T04:36:53;0.80;;;0.80;;
19927;SDS011;10126;50.876;4.470;2023-01-26T04:38:54;0.70;;;0.70;;
19927;SDS011;10126;50.876;4.470;2023-01-26T04:40:55;0.70;;;0.70;;
19927;SDS011;10126;50.876;4.470;2023-01-26T04:42:55;0.67;;;0.67;;
19927;SDS011;10126;50.876;4.470;2023-01-26T04:44:59;0.70;;;0.70;;
19927;SDS011;10126;50.876;4.470;2023-01-26T04:46:59;0.60;;;0.60;;
19927;SDS011;10126;50.876;4.470;2023-01-26T04:49:00;0.70;;;0.70;;
19927;SDS011;10126;50.876;4.470;2023-01-26T04:51:02;0.70;;;0.70;;
19927;SDS011;10126;50.876;4.470;2023-01-26T04:53:09;0.70;;;0.70;;
19927;SDS011;10126;50.876;4.470;2023-01-26T04:55:09;0.70;;;0.70;;
19927;SDS011;10126;50.876;4.470;2023-01-26T04:57:10;0.70;;;0.70;;
19927;SDS011;10126;50.876;4.470;2023-01-26T04:59:11;0.70;;;0.70;;
19927;SDS011;10126;50.876;4.470;2023-01-26T05:01:16;0.70;;;0.70;;
19927;SDS011;10126;50.876;4.470;2023-01-26T05:03:17;0.70;;;0.70;;
19927;SDS011;10126;50.876;4.470;2023-01-26T05:05:18;0.63;;;0.63;;
19927;SDS011;10126;50.876;4.470;2023-01-26T05:07:18;0.70;;;0.70;;
19927;SDS011;10126;50.876;4.470;2023-01-26T05:09:19;0.70;;;0.70;;
19927;SDS011;10126;50.876;4.470;2023-01-26T05:11:19;0.60;;;0.60;;
19927;SDS011;10126;50.876;4.470;2023-01-26T05:13:20;0.80;;;0.80;;
19927;SDS011;10126;50.876;4.470;2023-01-26T05:15:21;0.60;;;0.60;;
19927;SDS011;10126;50.876;4.470;2023-01-26T05:17:22;0.67;;;0.67;;
19927;SDS011;10126;50.876;4.470;2023-01-26T05:19:22;0.50;;;0.50;;
19927;SDS011;10126;50.876;4.470;2023-01-26T05:21:23;0.60;;;0.60;;
19927;SDS011;10126;50.876;4.470;2023-01-26T05:23:26;0.50;;;0.50;;
19927;SDS011;10126;50.876;4.470;2023-01-26T05:25:26;0.60;;;0.60;;
19927;SDS011;10126;50.876;4.470;2023-01-26T05:27:27;0.50;;;0.50;;
19927;SDS011;10126;50.876;4.470;2023-01-26T05:29:28;0.60;;;0.60;;
19927;SDS011;10126;50.876;4.470;2023-01-26T05:31:28;0.60;;;0.60;;
19927;SDS011;10126;50.876;4.470;2023-01-26T05:33:29;0.60;;;0.60;;
19927;SDS011;10126;50.876;4.470;2023-01-26T05:35:30;0.70;;;0.70;;
19927;SDS011;10126;50.876;4.470;2023-01-26T05:37:31;0.63;;;0.63;;
19927;SDS011;10126;50.876;4.470;2023-01-26T05:39:32;0.60;;;0.60;;
19927;SDS011;10126;50.876;4.470;2023-01-26T05:41:38;0.60;;;0.60;;
19927;SDS011;10126;50.876;4.470;2023-01-26T05:43:38;0.73;;;0.73;;
19927;SDS011;10126;50.876;4.470;2023-01-26T05:45:39;0.50;;;0.50;;
19927;SDS011;10126;50.876;4.470;2023-01-26T05:47:41;0.60;;;0.60;;
19927;SDS011;10126;50.876;4.470;2023-01-26T05:49:46;0.67;;;0.67;;
19927;SDS011;10126;50.876;4.470;2023-01-26T05:51:46;0.50;;;0.50;;
19927;SDS011;10126;50.876;4.470;2023-01-26T05:53:47;0.57;;;0.57;;
19927;SDS011;10126;50.876;4.470;2023-01-26T05:55:47;0.47;;;0.47;;
19927;SDS011;10126;50.876;4.470;2023-01-26T05:57:49;0.40;;;0.40;;
19927;SDS011;10126;50.876;4.470;2023-01-26T05:59:49;0.60;;;0.60;;
19927;SDS011;10126;50.876;4.470;2023-01-26T06:01:50;0.67;;;0.67;;
19927;SDS011;10126;50.876;4.470;2023-01-26T06:03:51;0.40;;;0.40;;
19927;SDS011;10126;50.876;4.470;2023-01-26T06:05:53;0.57;;;0.57;;
19927;SDS011;10126;50.876;4.470;2023-01-26T06:07:54;0.67;;;0.67;;
19927;SDS011;10126;50.876;4.470;2023-01-26T06:09:54;0.50;;;0.50;;
19927;SDS011;10126;50.876;4.470;2023-01-26T06:11:55;0.53;;;0.53;;
19927;SDS011;10126;50.876;4.470;2023-01-26T06:13:56;0.50;;;0.50;;
19927;SDS011;10126;50.876;4.470;2023-01-26T06:15:59;0.87;;;0.63;;
19927;SDS011;10126;50.876;4.470;2023-01-26T06:18:00;0.70;;;0.70;;
19927;SDS011;10126;50.876;4.470;2023-01-26T06:20:01;0.50;;;0.50;;
19927;SDS011;10126;50.876;4.470;2023-01-26T06:22:08;0.50;;;0.50;;
19927;SDS011;10126;50.876;4.470;2023-01-26T06:24:10;0.47;;;0.47;;
19927;SDS011;10126;50.876;4.470;2023-01-26T06:26:11;0.60;;;0.60;;
19927;SDS011;10126;50.876;4.470;2023-01-26T06:28:11;0.50;;;0.50;;
19927;SDS011;10126;50.876;4.470;2023-01-26T06:30:12;0.50;;;0.50;;
19927;SDS011;10126;50.876;4.470;2023-01-26T06:32:13;0.50;;;0.50;;
19927;SDS011;10126;50.876;4.470;2023-01-26T06:34:14;0.50;;;0.50;;
19927;SDS011;10126;50.876;4.470;2023-01-26T06:36:15;0.50;;;0.50;;
19927;SDS011;10126;50.876;4.470;2023-01-26T06:38:15;0.50;;;0.50;;
19927;SDS011;10126;50.876;4.470;2023-01-26T06:40:16;0.40;;;0.40;;
19927;SDS011;10126;50.876;4.470;2023-01-26T06:42:18;0.40;;;0.40;;
19927;SDS011;10126;50.876;4.470;2023-01-26T06:44:18;0.50;;;0.50;;
19927;SDS011;10126;50.876;4.470;2023-01-26T06:46:19;0.50;;;0.50;;
19927;SDS011;10126;50.876;4.470;2023-01-26T06:48:20;0.60;;;0.60;;
19927;SDS011;10126;50.876;4.470;2023-01-26T06:50:22;0.53;;;0.53;;
19927;SDS011;10126;50.876;4.470;2023-01-26T06:52:29;0.43;;;0.43;;
19927;SDS011;10126;50.876;4.470;2023-01-26T06:54:31;0.40;;;0.40;;
19927;SDS011;10126;50.876;4.470;2023-01-26T06:56:32;0.47;;;0.47;;
19927;SDS011;10126;50.876;4.470;2023-01-26T06:58:32;0.50;;;0.50;;
19927;SDS011;10126;50.876;4.470;2023-01-26T07:00:33;0.60;;;0.60;;
19927;SDS011;10126;50.876;4.470;2023-01-26T07:02:34;0.40;;;0.40;;
19927;SDS011;10126;50.876;4.470;2023-01-26T07:04:34;0.40;;;0.40;;
19927;SDS011;10126;50.876;4.470;2023-01-26T07:06:35;0.40;;;0.40;;
19927;SDS011;10126;50.876;4.470;2023-01-26T07:08:36;0.40;;;0.40;;
19927;SDS011;10126;50.876;4.470;2023-01-26T07:10:37;0.40;;;0.40;;
19927;SDS011;10126;50.876;4.470;2023-01-26T07:12:39;0.50;;;0.50;;
19927;SDS011;10126;50.876;4.470;2023-01-26T07:14:40;0.40;;;0.40;;
19927;SDS011;10126;50.876;4.470;2023-01-26T07:16:41;0.57;;;0.57;;
19927;SDS011;10126;50.876;4.470;2023-01-26T07:18:42;0.50;;;0.50;;
19927;SDS011;10126;50.876;4.470;2023-01-26T07:20:43;0.50;;;0.50;;
19927;SDS011;10126;50.876;4.470;2023-01-26T07:22:43;0.50;;;0.50;;
19927;SDS011;10126;50.876;4.470;2023-01-26T07:24:44;0.40;;;0.40;;
19927;SDS011;10126;50.876;4.470;2023-01-26T07:26:44;0.40;;;0.40;;
19927;SDS011;10126;50.876;4.470;2023-01-26T07:28:45;0.50;;;0.50;;
19927;SDS011;10126;50.876;4.470;2023-01-26T07:30:46;0.33;;;0.33;;
19927;SDS011;10126;50.876;4.470;2023-01-26T07:32:48;0.50;;;0.50;;
19927;SDS011;10126;50.876;4.470;2023-01-26T07:34:48;0.50;;;0.50;;
19927;SDS011;10126;50.876;4.470;2023-01-26T07:36:50;0.50;;;0.50;;
19927;SDS011;10126;50.876;4.470;2023-01-26T07:38:51;0.40;;;0.40;;
19927;SDS011;10126;50.876;4.470;2023-01-26T07:40:52;0.50;;;0.50;;
19927;SDS011;10126;50.876;4.470;2023-01-26T07:42:54;0.40;;;0.40;;
19927;SDS011;10126;50.876;4.470;2023-01-26T07:44:55;0.47;;;0.47;;
19927;SDS011;10126;50.876;4.470;2023-01-26T07:46:56;0.40;;;0.40;;
19927;SDS011;10126;50.876;4.470;2023-01-26T07:48:56;0.50;;;0.50;;
19927;SDS011;10126;50.876;4.470;2023-01-26T07:50:58;0.50;;;0.50;;
19927;SDS011;10126;50.876;4.470;2023-01-26T07:52:59;0.40;;;0.40;;
19927;SDS011;10126;50.876;4.470;2023-01-26T07:55:00;0.47;;;0.47;;
19927;SDS011;10126;50.876;4.470;2023-01-26T07:57:01;0.60;;;0.60;;
19927;SDS011;10126;50.876;4.470;2023-01-26T07:59:01;1.60;;;0.40;;
19927;SDS011;10126;50.876;4.470;2023-01-26T08:01:03;0.50;;;0.50;;
19927;SDS011;10126;50.876;4.470;2023-01-26T08:03:05;0.50;;;0.50;;
19927;SDS011;10126;50.876;4.470;2023-01-26T08:05:06;0.50;;;0.50;;
19927;SDS011;10126;50.876;4.470;2023-01-26T08:07:07;0.50;;;0.50;;
19927;SDS011;10126;50.876;4.470;2023-01-26T08:09:08;0.40;;;0.40;;
19927;SDS011;10126;50.876;4.470;2023-01-26T08:11:09;0.40;;;0.40;;
19927;SDS011;10126;50.876;4.470;2023-01-26T08:13:10;0.40;;;0.40;;
19927;SDS011;10126;50.876;4.470;2023-01-26T08:15:11;0.40;;;0.40;;
19927;SDS011;10126;50.876;4.470;2023-01-26T08:17:11;0.50;;;0.50;;
19927;SDS011;10126;50.876;4.470;2023-01-26T08:19:12;0.40;;;0.40;;
19927;SDS011;10126;50.876;4.470;2023-01-26T08:21:14;0.63;;;0.63;;
19927;SDS011;10126;50.876;4.470;2023-01-26T08:23:16;0.40;;;0.40;;
19927;SDS011;10126;50.876;4.470;2023-01-26T08:25:17;0.53;;;0.53;;
19927;SDS011;10126;50.876;4.470;2023-01-26T08:27:18;0.40;;;0.40;;
19927;SDS011;10126;50.876;4.470;2023-01-26T08:29:18;0.50;;;0.50;;
19927;SDS011;10126;50.876;4.470;2023-01-26T08:31:19;0.50;;;0.50;;
19927;SDS011;10126;50.876;4.470;2023-01-26T08:33:21;0.53;;;0.53;;
19927;SDS011;10126;50.876;4.470;2023-01-26T08:35:22;0.50;;;0.50;;
19927;SDS011;10126;50.876;4.470;2023-01-26T08:37:23;0.50;;;0.50;;
19927;SDS011;10126;50.876;4.470;2023-01-26T08:39:23;0.40;;;0.40;;
19927;SDS011;10126;50.876;4.470;2023-01-26T08:41:24;0.40;;;0.40;;
19927;SDS011;10126;50.876;4.470;2023-01-26T08:43:25;0.50;;;0.50;;
19927;SDS011;10126;50.876;4.470;2023-01-26T08:45:26;0.60;;;0.60;;
19927;SDS011;10126;50.876;4.470;2023-01-26T08:47:27;0.40;;;0.40;;
19927;SDS011;10126;50.876;4.470;2023-01-26T08:49:27;0.50;;;0.50;;
19927;SDS011;10126;50.876;4.470;2023-01-26T08:51:28;0.30;;;0.30;;
19927;SDS011;10126;50.876;4.470;2023-01-26T08:53:29;0.40;;;0.40;;
19927;SDS011;10126;50.876;4.470;2023-01-26T08:55:31;0.40;;;0.40;;
19927;SDS011;10126;50.876;4.470;2023-01-26T08:57:33;0.50;;;0.50;;
19927;SDS011;10126;50.876;4.470;2023-01-26T08:59:34;0.30;;;0.30;;
19927;SDS011;10126;50.876;4.470;2023-01-26T09:01:34;0.40;;;0.40;;
19927;SDS011;10126;50.876;4.470;2023-01-26T09:03:35;0.40;;;0.40;;
19927;SDS011;10126;50.876;4.470;2023-01-26T09:05:37;0.40;;;0.40;;
19927;SDS011;10126;50.876;4.470;2023-01-26T09:07:38;0.43;;;0.43;;
19927;SDS011;10126;50.876;4.470;2023-01-26T09:09:39;0.40;;;0.40;;
19927;SDS011;10126;50.876;4.470;2023-01-26T09:11:39;0.40;;;0.40;;
19927;SDS011;10126;50.876;4.470;2023-01-26T09:13:40;0.30;;;0.30;;
19927;SDS011;10126;50.876;4.470;2023-01-26T09:15:41;0.40;;;0.40;;
19927;SDS011;10126;50.876;4.470;2023-01-26T09:17:42;0.40;;;0.40;;
19927;SDS011;10126;50.876;4.470;2023-01-26T09:19:42;0.50;;;0.50;;
19927;SDS011;10126;50.876;4.470;2023-01-26T09:21:43;0.50;;;0.50;;
19927;SDS011;10126;50.876;4.470;2023-01-26T09:23:44;0.50;;;0.50;;
19927;SDS011;10126;50.876;4.470;2023-01-26T09:25:44;0.40;;;0.40;;
19927;SDS011;10126;50.876;4.470;2023-01-26T09:27:45;0.50;;;0.50;;
19927;SDS011;10126;50.876;4.470;2023-01-26T09:29:46;0.40;;;0.40;;
19927;SDS011;10126;50.876;4.470;2023-01-26T09:31:46;0.40;;;0.40;;
19927;SDS011;10126;50.876;4.470;2023-01-26T09:33:48;0.50;;;0.50;;
19927;SDS011;10126;50.876;4.470;2023-01-26T09:35:49;0.50;;;0.50;;
19927;SDS011;10126;50.876;4.470;2023-01-26T09:37:50;0.40;;;0.40;;
19927;SDS011;10126;50.876;4.470;2023-01-26T09:39:50;0.40;;;0.40;;
19927;SDS011;10126;50.876;4.470;2023-01-26T09:44:23;0.40;;;0.40;;
19927;SDS011;10126;50.876;4.470;2023-01-26T09:53:25;0.47;;;0.47;;
19927;SDS011;10126;50.876;4.470;2023-01-26T09:55:33;0.30;;;0.30;;
19927;SDS011;10126;50.876;4.470;2023-01-26T10:00:29;0.40;;;0.40;;
19927;SDS011;10126;50.876;4.470;2023-01-26T10:04:55;0.30;;;0.30;;
19927;SDS011;10126;50.876;4.470;2023-01-26T10:07:00;0.40;;;0.40;;
19927;SDS011;10126;50.876;4.470;2023-01-26T10:09:11;0.40;;;0.40;;
19927;SDS011;10126;50.876;4.470;2023-01-26T10:11:20;0.30;;;0.30;;
19927;SDS011;10126;50.876;4.470;2023-01-26T10:13:28;0.30;;;0.30;;
19927;SDS011;10126;50.876;4.470;2023-01-26T10:15:30;0.40;;;0.40;;
19927;SDS011;10126;50.876;4.470;2023-01-26T10:17:37;0.40;;;0.40;;
19927;SDS011;10126;50.876;4.470;2023-01-26T10:19:48;1.50;;;0.30;;
19927;SDS011;10126;50.876;4.470;2023-01-26T10:21:52;0.40;;;0.40;;
19927;SDS011;10126;50.876;4.470;2023-01-26T10:23:54;0.40;;;0.40;;
19927;SDS011;10126;50.876;4.470;2023-01-26T10:26:13;0.40;;;0.40;;
19927;SDS011;10126;50.876;4.470;2023-01-26T10:30:22;0.37;;;0.37;;
19927;SDS011;10126;50.876;4.470;2023-01-26T10:32:23;0.43;;;0.43;;
19927;SDS011;10126;50.876;4.470;2023-01-26T10:34:24;0.50;;;0.50;;
19927;SDS011;10126;50.876;4.470;2023-01-26T10:36:28;0.40;;;0.40;;
19927;SDS011;10126;50.876;4.470;2023-01-26T10:40:41;0.30;;;0.30;;
19927;SDS011;10126;50.876;4.470;2023-01-26T10:42:53;0.40;;;0.40;;
19927;SDS011;10126;50.876;4.470;2023-01-26T10:44:56;0.40;;;0.40;;
19927;SDS011;10126;50.876;4.470;2023-01-26T10:49:14;0.40;;;0.40;;
19927;SDS011;10126;50.876;4.470;2023-01-26T10:51:20;0.50;;;0.50;;
19927;SDS011;10126;50.876;4.470;2023-01-26T10:53:28;0.40;;;0.40;;
19927;SDS011;10126;50.876;4.470;2023-01-26T10:55:29;0.50;;;0.50;;
19927;SDS011;10126;50.876;4.470;2023-01-26T10:57:32;0.47;;;0.47;;
19927;SDS011;10126;50.876;4.470;2023-01-26T10:59:38;0.63;;;0.40;;
19927;SDS011;10126;50.876;4.470;2023-01-26T11:01:53;0.40;;;0.40;;
19927;SDS011;10126;50.876;4.470;2023-01-26T11:04:05;0.50;;;0.50;;
19927;SDS011;10126;50.876;4.470;2023-01-26T11:06:14;0.40;;;0.40;;
19927;SDS011;10126;50.876;4.470;2023-01-26T11:08:33;0.57;;;0.57;;
19927;SDS011;10126;50.876;4.470;2023-01-26T11:10:36;0.50;;;0.50;;
19927;SDS011;10126;50.876;4.470;2023-01-26T11:12:39;0.40;;;0.40;;
19927;SDS011;10126;50.876;4.470;2023-01-26T11:14:39;0.47;;;0.47;;
19927;SDS011;10126;50.876;4.470;2023-01-26T11:16:41;0.50;;;0.50;;
19927;SDS011;10126;50.876;4.470;2023-01-26T11:19:04;0.60;;;0.60;;
19927;SDS011;10126;50.876;4.470;2023-01-26T11:21:13;0.57;;;0.40;;
19927;SDS011;10126;50.876;4.470;2023-01-26T11:23:42;0.50;;;0.50;;
19927;SDS011;10126;50.876;4.470;2023-01-26T11:30:40;0.60;;;0.60;;
19927;SDS011;10126;50.876;4.470;2023-01-26T11:39:53;0.50;;;0.50;;
19927;SDS011;10126;50.876;4.470;2023-01-26T11:44:31;0.60;;;0.60;;
19927;SDS011;10126;50.876;4.470;2023-01-26T11:49:17;0.40;;;0.40;;
19927;SDS011;10126;50.876;4.470;2023-01-26T11:58:30;0.40;;;0.40;;
19927;SDS011;10126;50.876;4.470;2023-01-26T12:00:47;0.40;;;0.40;;
19927;SDS011;10126;50.876;4.470;2023-01-26T12:03:00;0.60;;;0.60;;
19927;SDS011;10126;50.876;4.470;2023-01-26T12:05:11;0.50;;;0.50;;
19927;SDS011;10126;50.876;4.470;2023-01-26T12:08:09;0.40;;;0.40;;
19927;SDS011;10126;50.876;4.470;2023-01-26T12:10:28;0.70;;;0.70;;
19927;SDS011;10126;50.876;4.470;2023-01-26T12:12:41;0.60;;;0.60;;
19927;SDS011;10126;50.876;4.470;2023-01-26T12:15:02;0.60;;;0.60;;
19927;SDS011;10126;50.876;4.470;2023-01-26T12:19:27;0.73;;;0.60;;
19927;SDS011;10126;50.876;4.470;2023-01-26T12:21:34;0.70;;;0.70;;
19927;SDS011;10126;50.876;4.470;2023-01-26T12:23:47;0.60;;;0.60;;
19927;SDS011;10126;50.876;4.470;2023-01-26T12:32:28;0.60;;;0.60;;
19927;SDS011;10126;50.876;4.470;2023-01-26T12:34:31;0.60;;;0.60;;
19927;SDS011;10126;50.876;4.470;2023-01-26T12:41:34;0.60;;;0.60;;
19927;SDS011;10126;50.876;4.470;2023-01-26T12:43:47;0.67;;;0.60;;
19927;SDS011;10126;50.876;4.470;2023-01-26T12:45:58;0.50;;;0.50;;
19927;SDS011;10126;50.876;4.470;2023-01-26T12:50:15;0.50;;;0.50;;
19927;SDS011;10126;50.876;4.470;2023-01-26T12:52:28;0.40;;;0.40;;
19927;SDS011;10126;50.876;4.470;2023-01-26T12:57:03;0.50;;;0.50;;
19927;SDS011;10126;50.876;4.470;2023-01-26T12:59:13;0.60;;;0.60;;
19927;SDS011;10126;50.876;4.470;2023-01-26T13:01:35;0.50;;;0.50;;
19927;SDS011;10126;50.876;4.470;2023-01-26T13:03:41;0.50;;;0.50;;
19927;SDS011;10126;50.876;4.470;2023-01-26T13:10:42;0.50;;;0.50;;
19927;SDS011;10126;50.876;4.470;2023-01-26T13:14:59;0.50;;;0.50;;
19927;SDS011;10126;50.876;4.470;2023-01-26T13:21:52;0.50;;;0.50;;
19927;SDS011;10126;50.876;4.470;2023-01-26T13:23:53;0.60;;;0.60;;
19927;SDS011;10126;50.876;4.470;2023-01-26T13:26:09;0.50;;;0.50;;
19927;SDS011;10126;50.876;4.470;2023-01-26T13:28:14;0.67;;;0.67;;
19927;SDS011;10126;50.876;4.470;2023-01-26T13:34:26;0.40;;;0.40;;
19927;SDS011;10126;50.876;4.470;2023-01-26T13:36:42;0.50;;;0.50;;
19927;SDS011;10126;50.876;4.470;2023-01-26T13:38:48;0.50;;;0.50;;
19927;SDS011;10126;50.876;4.470;2023-01-26T13:40:58;0.50;;;0.50;;
19927;SDS011;10126;50.876;4.470;2023-01-26T13:45:15;0.60;;;0.60;;
19927;SDS011;10126;50.876;4.470;2023-01-26T13:47:36;0.50;;;0.50;;
19927;SDS011;10126;50.876;4.470;2023-01-26T13:49:42;0.50;;;0.50;;
19927;SDS011;10126;50.876;4.470;2023-01-26T13:51:43;0.50;;;0.50;;
19927;SDS011;10126;50.876;4.470;2023-01-26T13:54:02;0.60;;;0.60;;
19927;SDS011;10126;50.876;4.470;2023-01-26T13:56:04;0.43;;;0.43;;
19927;SDS011;10126;50.876;4.470;2023-01-26T13:58:12;0.50;;;0.50;;
19927;SDS011;10126;50.876;4.470;2023-01-26T14:00:14;0.33;;;0.33;;